Terminal Aerodrome Forecast
Issued by NWS Duluth, MN

Home | Current Version | Previous Version | Text Only | Print | Product List | Glossary On
Versions: 1 2 3 4 5 6 7 8 9 10 11 12 13 14 15 16 17 18 19
308
FTUS43 KDLH 251253 AAA
TAFINL
TAF AMD
KINL 251253Z 2513/2612 11005KT 1/2SM FG OVC002
     FM251400 11007KT P6SM BKN007
     FM251700 11010G18KT P6SM VCSH BKN120
     FM260000 11010KT P6SM VCSH BKN080
     FM260900 10005KT P6SM BKN100=

USA.gov is the U.S. government's official web portal to all federal, state and local government web resources and services.